sensor_id;sensor_type;location;lat;lon;timestamp;temperature;humidity
76384;SHT30;65204;48.606;7.598;2023-03-17T00:00:02;8.40;64.05
76384;SHT30;65204;48.606;7.598;2023-03-17T00:00:33;8.40;63.91
76384;SHT30;65204;48.606;7.598;2023-03-17T00:01:04;8.43;63.90
76384;SHT30;65204;48.606;7.598;2023-03-17T00:01:35;8.41;64.01
76384;SHT30;65204;48.606;7.598;2023-03-17T00:02:05;8.41;64.04
76384;SHT30;65204;48.606;7.598;2023-03-17T00:02:36;8.43;64.24
76384;SHT30;65204;48.606;7.598;2023-03-17T00:03:06;8.43;64.21
76384;SHT30;65204;48.606;7.598;2023-03-17T00:03:39;8.43;64.18
76384;SHT30;65204;48.606;7.598;2023-03-17T00:04:11;8.43;64.04
76384;SHT30;65204;48.606;7.598;2023-03-17T00:04:42;8.44;63.96
76384;SHT30;65204;48.606;7.598;2023-03-17T00:05:29;8.47;64.07
76384;SHT30;65204;48.606;7.598;2023-03-17T00:06:00;8.44;64.04
76384;SHT30;65204;48.606;7.598;2023-03-17T00:06:33;8.47;64.16
76384;SHT30;65204;48.606;7.598;2023-03-17T00:07:04;8.49;64.38
76384;SHT30;65204;48.606;7.598;2023-03-17T00:07:34;8.47;64.42
76384;SHT30;65204;48.606;7.598;2023-03-17T00:08:12;8.49;64.34
76384;SHT30;65204;48.606;7.598;2023-03-17T00:08:44;8.50;64.37
76384;SHT30;65204;48.606;7.598;2023-03-17T00:09:17;8.49;64.27
76384;SHT30;65204;48.606;7.598;2023-03-17T00:09:48;8.49;64.31
76384;SHT30;65204;48.606;7.598;2023-03-17T00:10:22;8.46;64.39
76384;SHT30;65204;48.606;7.598;2023-03-17T00:10:53;8.47;64.40
76384;SHT30;65204;48.606;7.598;2023-03-17T00:11:25;8.47;64.40
76384;SHT30;65204;48.606;7.598;2023-03-17T00:11:56;8.49;64.47
76384;SHT30;65204;48.606;7.598;2023-03-17T00:12:26;8.47;64.41
76384;SHT30;65204;48.606;7.598;2023-03-17T00:12:57;8.49;64.26
76384;SHT30;65204;48.606;7.598;2023-03-17T00:13:28;8.49;64.23
76384;SHT30;65204;48.606;7.598;2023-03-17T00:13:59;8.51;64.13
76384;SHT30;65204;48.606;7.598;2023-03-17T00:14:30;8.50;64.12
76384;SHT30;65204;48.606;7.598;2023-03-17T00:15:01;8.53;64.07
76384;SHT30;65204;48.606;7.598;2023-03-17T00:15:31;8.53;63.96
76384;SHT30;65204;48.606;7.598;2023-03-17T00:16:03;8.54;63.88
76384;SHT30;65204;48.606;7.598;2023-03-17T00:16:39;8.57;63.76
76384;SHT30;65204;48.606;7.598;2023-03-17T00:17:12;8.57;63.61
76384;SHT30;65204;48.606;7.598;2023-03-17T00:17:44;8.56;63.47
76384;SHT30;65204;48.606;7.598;2023-03-17T00:18:17;8.60;63.48
76384;SHT30;65204;48.606;7.598;2023-03-17T00:18:49;8.60;63.49
76384;SHT30;65204;48.606;7.598;2023-03-17T00:19:27;8.63;63.52
76384;SHT30;65204;48.606;7.598;2023-03-17T00:20:01;8.64;63.48
76384;SHT30;65204;48.606;7.598;2023-03-17T00:20:32;8.61;63.35
76384;SHT30;65204;48.606;7.598;2023-03-17T00:21:03;8.64;63.33
76384;SHT30;65204;48.606;7.598;2023-03-17T00:21:33;8.63;63.39
76384;SHT30;65204;48.606;7.598;2023-03-17T00:22:13;8.64;63.26
76384;SHT30;65204;48.606;7.598;2023-03-17T00:22:45;8.64;63.37
76384;SHT30;65204;48.606;7.598;2023-03-17T00:23:19;8.64;63.29
76384;SHT30;65204;48.606;7.598;2023-03-17T00:23:50;8.65;63.30
76384;SHT30;65204;48.606;7.598;2023-03-17T00:24:23;8.61;63.41
76384;SHT30;65204;48.606;7.598;2023-03-17T00:24:54;8.63;63.45
76384;SHT30;65204;48.606;7.598;2023-03-17T00:25:27;8.64;63.34
76384;SHT30;65204;48.606;7.598;2023-03-17T00:25:58;8.63;63.36
76384;SHT30;65204;48.606;7.598;2023-03-17T00:26:28;8.61;63.30
76384;SHT30;65204;48.606;7.598;2023-03-17T00:26:58;8.63;63.41
76384;SHT30;65204;48.606;7.598;2023-03-17T00:27:29;8.65;63.42
76384;SHT30;65204;48.606;7.598;2023-03-17T00:28:00;8.65;63.51
76384;SHT30;65204;48.606;7.598;2023-03-17T00:28:32;8.60;63.50
76384;SHT30;65204;48.606;7.598;2023-03-17T00:29:02;8.63;63.61
76384;SHT30;65204;48.606;7.598;2023-03-17T00:29:35;8.57;63.71
76384;SHT30;65204;48.606;7.598;2023-03-17T00:30:05;8.57;63.62
76384;SHT30;65204;48.606;7.598;2023-03-17T00:30:37;8.60;63.53
76384;SHT30;65204;48.606;7.598;2023-03-17T00:31:28;8.57;63.56
76384;SHT30;65204;48.606;7.598;2023-03-17T00:31:58;8.57;63.57
76384;SHT30;65204;48.606;7.598;2023-03-17T00:32:28;8.54;63.50
76384;SHT30;65204;48.606;7.598;2023-03-17T00:32:59;8.56;63.62
76384;SHT30;65204;48.606;7.598;2023-03-17T00:33:32;8.57;63.27
76384;SHT30;65204;48.606;7.598;2023-03-17T00:34:04;8.54;63.45
76384;SHT30;65204;48.606;7.598;2023-03-17T00:34:34;8.56;63.41
76384;SHT30;65204;48.606;7.598;2023-03-17T00:35:19;8.57;63.40
76384;SHT30;65204;48.606;7.598;2023-03-17T00:35:51;8.57;63.49
76384;SHT30;65204;48.606;7.598;2023-03-17T00:36:23;8.53;63.43
76384;SHT30;65204;48.606;7.598;2023-03-17T00:36:55;8.53;63.43
76384;SHT30;65204;48.606;7.598;2023-03-17T00:37:25;8.53;63.44
76384;SHT30;65204;48.606;7.598;2023-03-17T00:37:56;8.54;63.47
76384;SHT30;65204;48.606;7.598;2023-03-17T00:38:26;8.53;63.42
76384;SHT30;65204;48.606;7.598;2023-03-17T00:38:57;8.51;63.47
76384;SHT30;65204;48.606;7.598;2023-03-17T00:39:28;8.54;63.51
76384;SHT30;65204;48.606;7.598;2023-03-17T00:39:59;8.53;63.47
76384;SHT30;65204;48.606;7.598;2023-03-17T00:40:29;8.53;63.46
76384;SHT30;65204;48.606;7.598;2023-03-17T00:41:00;8.53;63.35
76384;SHT30;65204;48.606;7.598;2023-03-17T00:41:30;8.51;63.40
76384;SHT30;65204;48.606;7.598;2023-03-17T00:42:00;8.54;63.38
76384;SHT30;65204;48.606;7.598;2023-03-17T00:42:30;8.56;63.41
76384;SHT30;65204;48.606;7.598;2023-03-17T00:43:01;8.54;63.37
76384;SHT30;65204;48.606;7.598;2023-03-17T00:43:32;8.54;63.40
76384;SHT30;65204;48.606;7.598;2023-03-17T00:44:02;8.51;63.37
76384;SHT30;65204;48.606;7.598;2023-03-17T00:44:33;8.53;63.40
76384;SHT30;65204;48.606;7.598;2023-03-17T00:45:04;8.53;63.31
76384;SHT30;65204;48.606;7.598;2023-03-17T00:45:35;8.51;63.31
76384;SHT30;65204;48.606;7.598;2023-03-17T00:46:15;8.56;63.31
76384;SHT30;65204;48.606;7.598;2023-03-17T00:46:45;8.51;63.37
76384;SHT30;65204;48.606;7.598;2023-03-17T00:47:16;8.53;63.35
76384;SHT30;65204;48.606;7.598;2023-03-17T00:47:48;8.51;63.35
76384;SHT30;65204;48.606;7.598;2023-03-17T00:48:20;8.50;63.33
76384;SHT30;65204;48.606;7.598;2023-03-17T00:48:50;8.49;63.35
76384;SHT30;65204;48.606;7.598;2023-03-17T00:49:23;8.53;63.55
76384;SHT30;65204;48.606;7.598;2023-03-17T00:49:54;8.53;63.58
76384;SHT30;65204;48.606;7.598;2023-03-17T00:50:26;8.51;63.35
76384;SHT30;65204;48.606;7.598;2023-03-17T00:50:56;8.54;63.13
76384;SHT30;65204;48.606;7.598;2023-03-17T00:51:27;8.53;63.04
76384;SHT30;65204;48.606;7.598;2023-03-17T00:51:58;8.51;63.21
76384;SHT30;65204;48.606;7.598;2023-03-17T00:52:29;8.51;63.34
76384;SHT30;65204;48.606;7.598;2023-03-17T00:53:00;8.51;64.95
76384;SHT30;65204;48.606;7.598;2023-03-17T00:53:30;8.53;64.70
76384;SHT30;65204;48.606;7.598;2023-03-17T00:54:00;8.51;64.47
76384;SHT30;65204;48.606;7.598;2023-03-17T00:54:31;8.50;64.37
76384;SHT30;65204;48.606;7.598;2023-03-17T00:55:01;8.50;63.93
76384;SHT30;65204;48.606;7.598;2023-03-17T00:55:32;8.49;63.65
76384;SHT30;65204;48.606;7.598;2023-03-17T00:56:03;8.49;63.99
76384;SHT30;65204;48.606;7.598;2023-03-17T00:56:36;8.47;63.71
76384;SHT30;65204;48.606;7.598;2023-03-17T00:57:08;8.49;63.70
76384;SHT30;65204;48.606;7.598;2023-03-17T00:57:40;8.46;63.70
76384;SHT30;65204;48.606;7.598;2023-03-17T00:58:33;8.47;63.76
76384;SHT30;65204;48.606;7.598;2023-03-17T00:59:03;8.47;63.88
76384;SHT30;65204;48.606;7.598;2023-03-17T00:59:40;8.47;63.81
76384;SHT30;65204;48.606;7.598;2023-03-17T01:00:25;8.49;63.75
76384;SHT30;65204;48.606;7.598;2023-03-17T01:00:56;8.47;63.79
76384;SHT30;65204;48.606;7.598;2023-03-17T01:01:27;8.44;63.76
76384;SHT30;65204;48.606;7.598;2023-03-17T01:01:57;8.44;63.74
76384;SHT30;65204;48.606;7.598;2023-03-17T01:02:27;8.46;63.78
76384;SHT30;65204;48.606;7.598;2023-03-17T01:02:58;8.46;63.76
76384;SHT30;65204;48.606;7.598;2023-03-17T01:03:28;8.46;63.77
76384;SHT30;65204;48.606;7.598;2023-03-17T01:04:00;8.44;63.76
76384;SHT30;65204;48.606;7.598;2023-03-17T01:04:30;8.46;63.79
76384;SHT30;65204;48.606;7.598;2023-03-17T01:05:01;8.46;63.77
76384;SHT30;65204;48.606;7.598;2023-03-17T01:05:31;8.47;63.74
76384;SHT30;65204;48.606;7.598;2023-03-17T01:06:03;8.44;63.77
76384;SHT30;65204;48.606;7.598;2023-03-17T01:06:34;8.44;63.83
76384;SHT30;65204;48.606;7.598;2023-03-17T01:07:05;8.44;63.76
76384;SHT30;65204;48.606;7.598;2023-03-17T01:07:37;8.46;63.78
76384;SHT30;65204;48.606;7.598;2023-03-17T01:08:08;8.41;63.73
76384;SHT30;65204;48.606;7.598;2023-03-17T01:08:40;8.44;63.63
76384;SHT30;65204;48.606;7.598;2023-03-17T01:09:15;8.46;63.58
76384;SHT30;65204;48.606;7.598;2023-03-17T01:09:47;8.44;63.58
76384;SHT30;65204;48.606;7.598;2023-03-17T01:10:21;8.46;63.72
76384;SHT30;65204;48.606;7.598;2023-03-17T01:10:52;8.44;63.69
76384;SHT30;65204;48.606;7.598;2023-03-17T01:11:23;8.44;63.65
76384;SHT30;65204;48.606;7.598;2023-03-17T01:11:54;8.44;63.61
76384;SHT30;65204;48.606;7.598;2023-03-17T01:12:24;8.43;63.56
76384;SHT30;65204;48.606;7.598;2023-03-17T01:12:57;8.44;63.29
76384;SHT30;65204;48.606;7.598;2023-03-17T01:13:27;8.43;63.27
76384;SHT30;65204;48.606;7.598;2023-03-17T01:13:58;8.44;63.53
76384;SHT30;65204;48.606;7.598;2023-03-17T01:14:28;8.43;63.67
76384;SHT30;65204;48.606;7.598;2023-03-17T01:14:59;8.43;63.70
76384;SHT30;65204;48.606;7.598;2023-03-17T01:15:30;8.41;63.64
76384;SHT30;65204;48.606;7.598;2023-03-17T01:16:04;8.41;63.66
76384;SHT30;65204;48.606;7.598;2023-03-17T01:16:39;8.41;63.69
76384;SHT30;65204;48.606;7.598;2023-03-17T01:17:14;8.43;63.56
76384;SHT30;65204;48.606;7.598;2023-03-17T01:17:47;8.41;63.44
76384;SHT30;65204;48.606;7.598;2023-03-17T01:18:20;8.40;63.31
76384;SHT30;65204;48.606;7.598;2023-03-17T01:18:50;8.43;63.26
76384;SHT30;65204;48.606;7.598;2023-03-17T01:19:21;8.41;63.28
76384;SHT30;65204;48.606;7.598;2023-03-17T01:19:52;8.41;63.26
76384;SHT30;65204;48.606;7.598;2023-03-17T01:20:26;8.41;63.25
76384;SHT30;65204;48.606;7.598;2023-03-17T01:20:56;8.44;63.27
76384;SHT30;65204;48.606;7.598;2023-03-17T01:21:27;8.40;63.72
76384;SHT30;65204;48.606;7.598;2023-03-17T01:21:57;8.41;63.57
76384;SHT30;65204;48.606;7.598;2023-03-17T01:22:27;8.39;63.49
76384;SHT30;65204;48.606;7.598;2023-03-17T01:22:59;8.40;63.38
76384;SHT30;65204;48.606;7.598;2023-03-17T01:23:29;8.40;63.38
76384;SHT30;65204;48.606;7.598;2023-03-17T01:24:00;8.36;63.51
76384;SHT30;65204;48.606;7.598;2023-03-17T01:24:31;8.39;63.57
76384;SHT30;65204;48.606;7.598;2023-03-17T01:25:02;8.39;63.66
76384;SHT30;65204;48.606;7.598;2023-03-17T01:25:35;8.40;63.70
76384;SHT30;65204;48.606;7.598;2023-03-17T01:26:07;8.39;63.75
76384;SHT30;65204;48.606;7.598;2023-03-17T01:26:37;8.40;63.82
76384;SHT30;65204;48.606;7.598;2023-03-17T01:27:08;8.40;63.77
76384;SHT30;65204;48.606;7.598;2023-03-17T01:27:39;8.39;63.76
76384;SHT30;65204;48.606;7.598;2023-03-17T01:28:15;8.37;63.74
76384;SHT30;65204;48.606;7.598;2023-03-17T01:28:46;8.33;63.73
76384;SHT30;65204;48.606;7.598;2023-03-17T01:29:16;8.34;63.72
76384;SHT30;65204;48.606;7.598;2023-03-17T01:29:51;8.34;63.66
76384;SHT30;65204;48.606;7.598;2023-03-17T01:30:25;8.33;63.63
76384;SHT30;65204;48.606;7.598;2023-03-17T01:30:57;8.32;63.71
76384;SHT30;65204;48.606;7.598;2023-03-17T01:31:27;8.32;63.70
76384;SHT30;65204;48.606;7.598;2023-03-17T01:31:58;8.33;63.68
76384;SHT30;65204;48.606;7.598;2023-03-17T01:32:28;8.30;63.69
76384;SHT30;65204;48.606;7.598;2023-03-17T01:32:59;8.29;63.63
76384;SHT30;65204;48.606;7.598;2023-03-17T01:33:30;8.27;63.71
76384;SHT30;65204;48.606;7.598;2023-03-17T01:34:00;8.27;63.76
76384;SHT30;65204;48.606;7.598;2023-03-17T01:34:31;8.27;63.74
76384;SHT30;65204;48.606;7.598;2023-03-17T01:35:03;8.26;63.76
76384;SHT30;65204;48.606;7.598;2023-03-17T01:35:35;8.26;63.80
76384;SHT30;65204;48.606;7.598;2023-03-17T01:36:06;8.26;63.70
76384;SHT30;65204;48.606;7.598;2023-03-17T01:36:36;8.26;63.67
76384;SHT30;65204;48.606;7.598;2023-03-17T01:37:07;8.25;63.65
76384;SHT30;65204;48.606;7.598;2023-03-17T01:37:39;8.23;63.58
76384;SHT30;65204;48.606;7.598;2023-03-17T01:38:09;8.23;63.58
76384;SHT30;65204;48.606;7.598;2023-03-17T01:38:40;8.20;63.56
76384;SHT30;65204;48.606;7.598;2023-03-17T01:39:11;8.23;63.58
76384;SHT30;65204;48.606;7.598;2023-03-17T01:39:41;8.23;63.56
76384;SHT30;65204;48.606;7.598;2023-03-17T01:40:14;8.22;63.45
76384;SHT30;65204;48.606;7.598;2023-03-17T01:40:49;8.22;63.49
76384;SHT30;65204;48.606;7.598;2023-03-17T01:41:20;8.23;63.52
76384;SHT30;65204;48.606;7.598;2023-03-17T01:41:50;8.22;63.57
76384;SHT30;65204;48.606;7.598;2023-03-17T01:42:26;8.22;63.65
76384;SHT30;65204;48.606;7.598;2023-03-17T01:43:40;8.22;63.74
76384;SHT30;65204;48.606;7.598;2023-03-17T01:44:17;8.20;63.63
76384;SHT30;65204;48.606;7.598;2023-03-17T01:45:06;8.20;63.55
76384;SHT30;65204;48.606;7.598;2023-03-17T01:46:45;8.17;63.49
76384;SHT30;65204;48.606;7.598;2023-03-17T01:47:16;8.20;63.52
76384;SHT30;65204;48.606;7.598;2023-03-17T01:47:47;8.16;63.50
76384;SHT30;65204;48.606;7.598;2023-03-17T01:48:18;8.16;63.55
76384;SHT30;65204;48.606;7.598;2023-03-17T01:49:17;8.17;63.56
76384;SHT30;65204;48.606;7.598;2023-03-17T01:49:48;8.16;63.61
76384;SHT30;65204;48.606;7.598;2023-03-17T01:50:19;8.13;63.64
76384;SHT30;65204;48.606;7.598;2023-03-17T01:50:50;8.12;63.60
76384;SHT30;65204;48.606;7.598;2023-03-17T01:52:05;8.12;63.48
76384;SHT30;65204;48.606;7.598;2023-03-17T01:52:38;8.12;63.48
76384;SHT30;65204;48.606;7.598;2023-03-17T01:53:09;8.12;63.63
76384;SHT30;65204;48.606;7.598;2023-03-17T01:53:43;8.10;63.68
76384;SHT30;65204;48.606;7.598;2023-03-17T01:54:19;8.10;63.67
76384;SHT30;65204;48.606;7.598;2023-03-17T01:54:58;8.09;63.54
76384;SHT30;65204;48.606;7.598;2023-03-17T01:55:30;8.10;63.54
76384;SHT30;65204;48.606;7.598;2023-03-17T01:56:01;8.09;63.68
76384;SHT30;65204;48.606;7.598;2023-03-17T01:56:32;8.07;63.69
76384;SHT30;65204;48.606;7.598;2023-03-17T01:57:22;8.07;63.95
76384;SHT30;65204;48.606;7.598;2023-03-17T01:57:54;8.09;63.63
76384;SHT30;65204;48.606;7.598;2023-03-17T01:58:25;8.09;63.46
76384;SHT30;65204;48.606;7.598;2023-03-17T01:58:58;8.06;63.46
76384;SHT30;65204;48.606;7.598;2023-03-17T01:59:34;8.06;63.49
76384;SHT30;65204;48.606;7.598;2023-03-17T02:00:07;8.06;63.48
76384;SHT30;65204;48.606;7.598;2023-03-17T02:00:38;8.07;63.40
76384;SHT30;65204;48.606;7.598;2023-03-17T02:01:08;8.05;63.35
76384;SHT30;65204;48.606;7.598;2023-03-17T02:01:41;8.05;63.29
76384;SHT30;65204;48.606;7.598;2023-03-17T02:02:18;8.05;63.27
76384;SHT30;65204;48.606;7.598;2023-03-17T02:02:54;8.06;63.36
76384;SHT30;65204;48.606;7.598;2023-03-17T02:03:25;8.05;63.68
76384;SHT30;65204;48.606;7.598;2023-03-17T02:03:57;8.03;63.54
76384;SHT30;65204;48.606;7.598;2023-03-17T02:04:28;8.05;63.48
76384;SHT30;65204;48.606;7.598;2023-03-17T02:04:59;8.05;63.49
76384;SHT30;65204;48.606;7.598;2023-03-17T02:05:30;8.02;63.50
76384;SHT30;65204;48.606;7.598;2023-03-17T02:06:02;8.00;63.55
76384;SHT30;65204;48.606;7.598;2023-03-17T02:06:34;8.02;63.51
76384;SHT30;65204;48.606;7.598;2023-03-17T02:07:05;8.00;63.40
76384;SHT30;65204;48.606;7.598;2023-03-17T02:07:36;7.97;63.50
76384;SHT30;65204;48.606;7.598;2023-03-17T02:08:11;8.00;63.48
76384;SHT30;65204;48.606;7.598;2023-03-17T02:08:42;8.00;63.53
76384;SHT30;65204;48.606;7.598;2023-03-17T02:09:13;7.99;63.53
76384;SHT30;65204;48.606;7.598;2023-03-17T02:09:43;7.99;63.50
76384;SHT30;65204;48.606;7.598;2023-03-17T02:10:17;8.00;63.49
76384;SHT30;65204;48.606;7.598;2023-03-17T02:10:48;7.99;63.69
76384;SHT30;65204;48.606;7.598;2023-03-17T02:11:19;7.99;63.85
76384;SHT30;65204;48.606;7.598;2023-03-17T02:11:52;7.96;63.79
76384;SHT30;65204;48.606;7.598;2023-03-17T02:12:24;7.97;63.79
76384;SHT30;65204;48.606;7.598;2023-03-17T02:12:58;7.96;63.69
76384;SHT30;65204;48.606;7.598;2023-03-17T02:13:30;7.96;63.72
76384;SHT30;65204;48.606;7.598;2023-03-17T02:14:01;7.93;63.77
76384;SHT30;65204;48.606;7.598;2023-03-17T02:14:31;7.93;63.74
76384;SHT30;65204;48.606;7.598;2023-03-17T02:15:02;7.92;63.79
76384;SHT30;65204;48.606;7.598;2023-03-17T02:15:47;7.92;64.04
76384;SHT30;65204;48.606;7.598;2023-03-17T02:16:17;7.90;64.15
76384;SHT30;65204;48.606;7.598;2023-03-17T02:16:47;7.89;64.35
76384;SHT30;65204;48.606;7.598;2023-03-17T02:17:19;7.92;64.36
76384;SHT30;65204;48.606;7.598;2023-03-17T02:17:51;7.89;64.07
76384;SHT30;65204;48.606;7.598;2023-03-17T02:18:22;7.86;64.17
76384;SHT30;65204;48.606;7.598;2023-03-17T02:18:55;7.85;64.16
76384;SHT30;65204;48.606;7.598;2023-03-17T02:19:26;7.85;64.23
76384;SHT30;65204;48.606;7.598;2023-03-17T02:21:50;7.83;64.22
76384;SHT30;65204;48.606;7.598;2023-03-17T02:22:22;7.82;64.31
76384;SHT30;65204;48.606;7.598;2023-03-17T02:22:53;7.78;64.21
76384;SHT30;65204;48.606;7.598;2023-03-17T02:23:24;7.79;64.35
76384;SHT30;65204;48.606;7.598;2023-03-17T02:23:56;7.79;64.44
76384;SHT30;65204;48.606;7.598;2023-03-17T02:24:31;7.76;64.59
76384;SHT30;65204;48.606;7.598;2023-03-17T02:25:03;7.76;64.52
76384;SHT30;65204;48.606;7.598;2023-03-17T02:25:35;7.74;64.53
76384;SHT30;65204;48.606;7.598;2023-03-17T02:26:05;7.76;64.56
76384;SHT30;65204;48.606;7.598;2023-03-17T02:26:37;7.75;64.62
76384;SHT30;65204;48.606;7.598;2023-03-17T02:27:12;7.74;64.55
76384;SHT30;65204;48.606;7.598;2023-03-17T02:27:45;7.74;64.63
76384;SHT30;65204;48.606;7.598;2023-03-17T02:28:23;7.74;64.54
76384;SHT30;65204;48.606;7.598;2023-03-17T02:28:55;7.72;64.59
76384;SHT30;65204;48.606;7.598;2023-03-17T02:29:26;7.74;64.57
76384;SHT30;65204;48.606;7.598;2023-03-17T02:29:56;7.74;64.49
76384;SHT30;65204;48.606;7.598;2023-03-17T02:30:27;7.74;64.54
76384;SHT30;65204;48.606;7.598;2023-03-17T02:30:58;7.74;64.42
76384;SHT30;65204;48.606;7.598;2023-03-17T02:31:28;7.74;64.45
76384;SHT30;65204;48.606;7.598;2023-03-17T02:31:59;7.71;64.50
76384;SHT30;65204;48.606;7.598;2023-03-17T02:32:34;7.71;64.48
76384;SHT30;65204;48.606;7.598;2023-03-17T02:33:05;7.72;64.47
76384;SHT30;65204;48.606;7.598;2023-03-17T02:33:35;7.69;64.57
76384;SHT30;65204;48.606;7.598;2023-03-17T02:34:05;7.68;64.59
76384;SHT30;65204;48.606;7.598;2023-03-17T02:34:36;7.69;64.47
76384;SHT30;65204;48.606;7.598;2023-03-17T02:35:07;7.66;64.54
76384;SHT30;65204;48.606;7.598;2023-03-17T02:35:38;7.71;64.66
76384;SHT30;65204;48.606;7.598;2023-03-17T02:36:09;7.68;64.55
76384;SHT30;65204;48.606;7.598;2023-03-17T02:36:40;7.68;64.50
76384;SHT30;65204;48.606;7.598;2023-03-17T02:37:11;7.69;64.39
76384;SHT30;65204;48.606;7.598;2023-03-17T02:37:41;7.68;64.42
76384;SHT30;65204;48.606;7.598;2023-03-17T02:38:12;7.68;64.41
76384;SHT30;65204;48.606;7.598;2023-03-17T02:38:43;7.68;64.32
76384;SHT30;65204;48.606;7.598;2023-03-17T02:39:13;7.66;64.45
76384;SHT30;65204;48.606;7.598;2023-03-17T02:39:44;7.64;64.46
76384;SHT30;65204;48.606;7.598;2023-03-17T02:40:15;7.62;64.51
76384;SHT30;65204;48.606;7.598;2023-03-17T02:40:46;7.62;64.50
76384;SHT30;65204;48.606;7.598;2023-03-17T02:41:16;7.62;64.54
76384;SHT30;65204;48.606;7.598;2023-03-17T02:41:47;7.61;64.58
76384;SHT30;65204;48.606;7.598;2023-03-17T02:42:17;7.64;64.61
76384;SHT30;65204;48.606;7.598;2023-03-17T02:42:48;7.61;64.64
76384;SHT30;65204;48.606;7.598;2023-03-17T02:43:19;7.59;64.55
76384;SHT30;65204;48.606;7.598;2023-03-17T02:43:49;7.61;64.59
76384;SHT30;65204;48.606;7.598;2023-03-17T02:44:21;7.59;64.63
76384;SHT30;65204;48.606;7.598;2023-03-17T02:44:51;7.55;64.61
76384;SHT30;65204;48.606;7.598;2023-03-17T02:45:22;7.56;64.67
76384;SHT30;65204;48.606;7.598;2023-03-17T02:45:52;7.56;64.46
76384;SHT30;65204;48.606;7.598;2023-03-17T02:46:23;7.54;64.58
76384;SHT30;65204;48.606;7.598;2023-03-17T02:46:53;7.56;64.56
76384;SHT30;65204;48.606;7.598;2023-03-17T02:47:24;7.52;64.56
76384;SHT30;65204;48.606;7.598;2023-03-17T02:47:54;7.50;64.61
76384;SHT30;65204;48.606;7.598;2023-03-17T02:48:26;7.51;64.55
76384;SHT30;65204;48.606;7.598;2023-03-17T02:48:57;7.52;64.63
76384;SHT30;65204;48.606;7.598;2023-03-17T02:49:28;7.50;64.84
76384;SHT30;65204;48.606;7.598;2023-03-17T02:49:59;7.47;65.03
76384;SHT30;65204;48.606;7.598;2023-03-17T02:50:30;7.48;65.20
76384;SHT30;65204;48.606;7.598;2023-03-17T02:51:01;7.47;65.18
76384;SHT30;65204;48.606;7.598;2023-03-17T02:51:31;7.44;64.97
76384;SHT30;65204;48.606;7.598;2023-03-17T02:52:02;7.43;64.84
76384;SHT30;65204;48.606;7.598;2023-03-17T02:52:32;7.40;64.85
76384;SHT30;65204;48.606;7.598;2023-03-17T02:53:03;7.44;64.47
76384;SHT30;65204;48.606;7.598;2023-03-17T02:53:33;7.43;64.39
76384;SHT30;65204;48.606;7.598;2023-03-17T02:54:04;7.41;64.81
76384;SHT30;65204;48.606;7.598;2023-03-17T02:54:34;7.38;64.78
76384;SHT30;65204;48.606;7.598;2023-03-17T02:55:05;7.36;64.80
76384;SHT30;65204;48.606;7.598;2023-03-17T02:55:37;7.34;64.83
76384;SHT30;65204;48.606;7.598;2023-03-17T02:56:07;7.30;65.14
76384;SHT30;65204;48.606;7.598;2023-03-17T02:56:38;7.31;65.59
76384;SHT30;65204;48.606;7.598;2023-03-17T02:57:10;7.27;65.58
76384;SHT30;65204;48.606;7.598;2023-03-17T02:57:40;7.25;65.37
76384;SHT30;65204;48.606;7.598;2023-03-17T02:58:11;7.20;65.25
76384;SHT30;65204;48.606;7.598;2023-03-17T02:58:41;7.14;65.45
76384;SHT30;65204;48.606;7.598;2023-03-17T02:59:11;7.14;65.47
76384;SHT30;65204;48.606;7.598;2023-03-17T02:59:42;7.14;65.53
76384;SHT30;65204;48.606;7.598;2023-03-17T03:00:12;7.10;65.55
76384;SHT30;65204;48.606;7.598;2023-03-17T03:00:43;7.07;65.91
76384;SHT30;65204;48.606;7.598;2023-03-17T03:01:13;7.05;65.48
76384;SHT30;65204;48.606;7.598;2023-03-17T03:01:44;7.07;65.51
76384;SHT30;65204;48.606;7.598;2023-03-17T03:02:17;7.03;66.50
76384;SHT30;65204;48.606;7.598;2023-03-17T03:02:47;7.01;66.79
76384;SHT30;65204;48.606;7.598;2023-03-17T03:03:18;7.00;66.49
76384;SHT30;65204;48.606;7.598;2023-03-17T03:03:48;6.94;66.26
76384;SHT30;65204;48.606;7.598;2023-03-17T03:04:19;6.93;66.74
76384;SHT30;65204;48.606;7.598;2023-03-17T03:04:49;6.96;66.47
76384;SHT30;65204;48.606;7.598;2023-03-17T03:05:20;6.90;65.98
76384;SHT30;65204;48.606;7.598;2023-03-17T03:05:50;6.89;65.91
76384;SHT30;65204;48.606;7.598;2023-03-17T03:06:20;6.90;66.03
76384;SHT30;65204;48.606;7.598;2023-03-17T03:06:53;6.90;66.45
76384;SHT30;65204;48.606;7.598;2023-03-17T03:07:23;6.89;65.95
76384;SHT30;65204;48.606;7.598;2023-03-17T03:07:54;6.87;65.92
76384;SHT30;65204;48.606;7.598;2023-03-17T03:08:25;6.87;65.93
76384;SHT30;65204;48.606;7.598;2023-03-17T03:08:56;6.86;65.85
76384;SHT30;65204;48.606;7.598;2023-03-17T03:09:26;6.86;65.75
76384;SHT30;65204;48.606;7.598;2023-03-17T03:09:57;6.86;65.80
76384;SHT30;65204;48.606;7.598;2023-03-17T03:10:27;6.84;65.90
76384;SHT30;65204;48.606;7.598;2023-03-17T03:10:57;6.84;65.91
76384;SHT30;65204;48.606;7.598;2023-03-17T03:11:29;6.83;66.02
76384;SHT30;65204;48.606;7.598;2023-03-17T03:11:59;6.83;66.01
76384;SHT30;65204;48.606;7.598;2023-03-17T03:12:30;6.82;66.01
76384;SHT30;65204;48.606;7.598;2023-03-17T03:13:00;6.80;65.96
76384;SHT30;65204;48.606;7.598;2023-03-17T03:13:31;6.80;66.11
76384;SHT30;65204;48.606;7.598;2023-03-17T03:14:02;6.82;66.04
76384;SHT30;65204;48.606;7.598;2023-03-17T03:14:32;6.82;66.23
76384;SHT30;65204;48.606;7.598;2023-03-17T03:15:03;6.79;66.35
76384;SHT30;65204;48.606;7.598;2023-03-17T03:15:34;6.77;66.41
76384;SHT30;65204;48.606;7.598;2023-03-17T03:16:05;6.77;66.39
76384;SHT30;65204;48.606;7.598;2023-03-17T03:16:36;6.77;66.40
76384;SHT30;65204;48.606;7.598;2023-03-17T03:17:06;6.73;66.49
76384;SHT30;65204;48.606;7.598;2023-03-17T03:17:38;6.75;66.53
76384;SHT30;65204;48.606;7.598;2023-03-17T03:18:09;6.72;66.52
76384;SHT30;65204;48.606;7.598;2023-03-17T03:18:39;6.73;66.48
76384;SHT30;65204;48.606;7.598;2023-03-17T03:19:09;6.70;66.58
76384;SHT30;65204;48.606;7.598;2023-03-17T03:19:40;6.70;66.67
76384;SHT30;65204;48.606;7.598;2023-03-17T03:20:10;6.72;66.67
76384;SHT30;65204;48.606;7.598;2023-03-17T03:20:43;6.70;66.58
76384;SHT30;65204;48.606;7.598;2023-03-17T03:21:13;6.72;66.67
76384;SHT30;65204;48.606;7.598;2023-03-17T03:21:44;6.72;66.52
76384;SHT30;65204;48.606;7.598;2023-03-17T03:22:15;6.69;66.59
76384;SHT30;65204;48.606;7.598;2023-03-17T03:22:45;6.72;66.60
76384;SHT30;65204;48.606;7.598;2023-03-17T03:23:16;6.69;66.58
76384;SHT30;65204;48.606;7.598;2023-03-17T03:23:47;6.69;66.56
76384;SHT30;65204;48.606;7.598;2023-03-17T03:24:17;6.70;66.54
76384;SHT30;65204;48.606;7.598;2023-03-17T03:24:48;6.70;66.58
76384;SHT30;65204;48.606;7.598;2023-03-17T03:25:18;6.70;66.55
76384;SHT30;65204;48.606;7.598;2023-03-17T03:25:48;6.70;66.53
76384;SHT30;65204;48.606;7.598;2023-03-17T03:26:19;6.70;66.65
76384;SHT30;65204;48.606;7.598;2023-03-17T03:26:49;6.68;66.65
76384;SHT30;65204;48.606;7.598;2023-03-17T03:27:20;6.66;66.68
76384;SHT30;65204;48.606;7.598;2023-03-17T03:27:50;6.66;66.73
76384;SHT30;65204;48.606;7.598;2023-03-17T03:28:21;6.68;66.73